Time;durP1;ratioP1;P1;durP2;ratioP2;P2;SDS_P1;SDS_P2;PMS_P1;PMS_P2;Temp;Humidity;BMP_temperature;BMP_pressure;BME280_temperature;BME280_humidity;BME280_pressure;Samples;Min_cycle;Max_cycle;Signal;HPM_P1;HPM_P2
2023/08/13 00:02:06;;;;;;;3.90;2.80;;;21.40;99.90;;;;;;6126484;23;20407;-83
2023/08/13 00:04:41;;;;;;;3.37;3.07;;;22.00;99.90;;;;;;6127598;23;20451;-83
2023/08/13 00:10:33;;;;;;;3.23;2.50;;;22.60;99.90;;;;;;6129700;23;20419;-83
2023/08/13 00:13:18;;;;;;;3.77;2.37;;;21.80;99.90;;;;;;6097181;23;20491;-83
2023/08/13 00:15:48;;;;;;;3.87;2.67;;;21.90;99.90;;;;;;6098974;23;20419;-85
2023/08/13 00:18:19;;;;;;;3.60;2.13;;;22.00;99.90;;;;;;6124107;23;20408;-82
2023/08/13 00:21:07;;;;;;;3.87;2.60;;;22.40;99.90;;;;;;6124587;23;20482;-83
2023/08/13 00:23:42;;;;;;;3.50;2.50;;;22.40;99.90;;;;;;6100322;23;20475;-85
2023/08/13 00:26:26;;;;;;;2.50;2.30;;;21.60;99.90;;;;;;6121120;23;20751;-83
2023/08/13 00:29:14;;;;;;;3.60;2.67;;;21.00;99.90;;;;;;6122697;23;20411;-84
2023/08/13 00:31:56;;;;;;;4.00;2.80;;;22.70;99.90;;;;;;6128595;23;20458;-82
2023/08/13 00:34:31;;;;;;;2.93;2.47;;;22.50;99.90;;;;;;6128989;23;20459;-83
2023/08/13 00:37:17;;;;;;;3.17;2.80;;;22.60;99.90;;;;;;6126045;23;21110;-82
2023/08/13 00:39:59;;;;;;;3.07;2.63;;;21.70;99.90;;;;;;6102136;23;20766;-82
2023/08/13 00:45:27;;;;;;;4.07;2.60;;;21.60;99.90;;;;;;6123151;23;21012;-83
2023/08/13 00:47:59;;;;;;;3.73;2.33;;;22.50;99.90;;;;;;6122950;23;20443;-84
2023/08/13 00:50:40;;;;;;;3.13;2.63;;;21.60;99.90;;;;;;6111420;23;20404;-84
2023/08/13 00:53:35;;;;;;;2.90;2.60;;;21.90;99.90;;;;;;6099109;23;20415;-83
2023/08/13 00:56:08;;;;;;;4.43;2.33;;;21.60;99.90;;;;;;6099422;23;20443;-84
2023/08/13 00:59:04;;;;;;;2.63;2.20;;;21.90;99.90;;;;;;6106796;23;20454;-82
2023/08/13 01:01:55;;;;;;;2.90;2.23;;;22.30;99.90;;;;;;6122718;23;20419;-83
2023/08/13 01:04:42;;;;;;;3.33;2.43;;;21.60;99.90;;;;;;6120457;23;21426;-81
2023/08/13 01:07:41;;;;;;;4.63;2.13;;;21.90;99.90;;;;;;6122769;23;20411;-85
2023/08/13 01:10:46;;;;;;;3.47;2.40;;;21.60;99.90;;;;;;6123642;23;20467;-81
2023/08/13 01:13:34;;;;;;;2.80;1.90;;;21.50;99.90;;;;;;6124830;23;20436;-84
2023/08/13 01:16:08;;;;;;;3.07;2.07;;;22.60;99.90;;;;;;6128446;23;20440;-84
2023/08/13 01:18:46;;;;;;;4.33;2.53;;;22.40;99.90;;;;;;6101940;23;20419;-84
2023/08/13 01:21:20;;;;;;;2.47;2.27;;;22.40;99.90;;;;;;6129241;23;20493;-83
2023/08/13 01:24:07;;;;;;;3.93;2.10;;;22.40;99.90;;;;;;6122308;23;20443;-83
2023/08/13 01:27:12;;;;;;;3.60;2.63;;;21.80;99.90;;;;;;6124611;23;20478;-83
2023/08/13 01:29:52;;;;;;;4.33;2.20;;;22.20;99.90;;;;;;6099049;23;21143;-83
2023/08/13 01:32:38;;;;;;;4.67;2.47;;;21.90;99.90;;;;;;6122325;23;20973;-82
2023/08/13 01:35:18;;;;;;;4.90;2.80;;;22.40;99.90;;;;;;6122842;23;20447;-84
2023/08/13 01:37:51;;;;;;;4.27;3.37;;;21.80;99.90;;;;;;6122698;23;21070;-83
2023/08/13 01:40:30;;;;;;;4.63;4.20;;;22.00;99.90;;;;;;6121669;23;20431;-85
2023/08/13 01:42:57;;;;;;;9.63;4.20;;;22.10;99.90;;;;;;6121850;23;20459;-83
2023/08/13 01:45:29;;;;;;;6.93;4.10;;;22.90;99.90;;;;;;6124383;23;20428;-83
2023/08/13 01:48:01;;;;;;;6.00;3.63;;;22.40;99.90;;;;;;6122444;23;20424;-83
2023/08/13 01:50:36;;;;;;;5.50;3.80;;;21.30;99.90;;;;;;6098163;23;20412;-84
2023/08/13 01:53:10;;;;;;;3.73;3.43;;;22.30;99.90;;;;;;6097345;23;21283;-85
2023/08/13 01:55:50;;;;;;;3.70;2.87;;;22.30;99.90;;;;;;6121825;23;20554;-84
2023/08/13 01:58:38;;;;;;;3.37;3.07;;;21.00;99.90;;;;;;6127661;23;20594;-83
2023/08/13 02:01:19;;;;;;;3.63;3.17;;;21.50;99.90;;;;;;6103584;23;20447;-83
2023/08/13 02:03:49;;;;;;;7.30;3.67;;;20.40;99.90;;;;;;6103970;23;20944;-83
2023/08/13 02:06:32;;;;;;;3.30;3.00;;;21.60;99.90;;;;;;6126752;23;20451;-83
2023/08/13 02:09:13;;;;;;;4.30;3.13;;;21.00;99.90;;;;;;6125446;23;20407;-82
2023/08/13 02:11:47;;;;;;;4.20;2.90;;;21.30;99.90;;;;;;6129651;23;20415;-84
2023/08/13 02:14:29;;;;;;;4.30;3.90;;;20.90;99.90;;;;;;6128595;23;20423;-83
2023/08/13 02:17:12;;;;;;;4.53;4.10;;;20.90;99.90;;;;;;6102687;23;20787;-85
2023/08/13 02:19:48;;;;;;;3.70;3.40;;;21.10;99.90;;;;;;6125468;23;20419;-82
2023/08/13 02:22:17;;;;;;;4.70;3.53;;;20.40;99.90;;;;;;6098295;23;20422;-83
2023/08/13 02:24:44;;;;;;;3.70;3.37;;;21.70;99.90;;;;;;6116863;23;21373;-84
2023/08/13 02:27:11;;;;;;;6.50;3.03;;;21.40;99.90;;;;;;6127256;23;20427;-83
2023/08/13 02:29:44;;;;;;;7.40;3.87;;;21.40;99.90;;;;;;6126137;23;20422;-83
2023/08/13 02:35:00;;;;;;;5.00;3.83;;;20.90;99.90;;;;;;6158425;23;20454;-84
2023/08/13 02:37:50;;;;;;;4.40;3.87;;;21.40;99.90;;;;;;6136510;23;20475;-82
2023/08/13 02:40:23;;;;;;;5.77;3.47;;;22.30;99.90;;;;;;6150284;23;20423;-83
2023/08/13 02:43:09;;;;;;;4.13;3.73;;;21.20;99.90;;;;;;6134476;23;20383;-83
2023/08/13 02:45:40;;;;;;;4.60;3.73;;;20.70;99.90;;;;;;6141831;23;20437;-83
2023/08/13 02:48:07;;;;;;;4.43;3.87;;;22.20;99.90;;;;;;6157098;23;20446;-82
2023/08/13 02:50:42;;;;;;;4.00;3.53;;;21.00;99.90;;;;;;6129064;23;20477;-83
2023/08/13 02:53:09;;;;;;;5.43;3.87;;;21.00;99.90;;;;;;6124800;23;20700;-80
2023/08/13 02:55:39;;;;;;;5.43;4.40;;;20.50;99.90;;;;;;6154138;23;20478;-85
2023/08/13 02:58:14;;;;;;;4.20;3.57;;;21.60;99.90;;;;;;6127520;23;20407;-83
2023/08/13 03:00:47;;;;;;;3.40;3.10;;;20.10;99.90;;;;;;6129627;23;20414;-85
2023/08/13 03:03:20;;;;;;;4.80;3.63;;;20.70;99.90;;;;;;6128288;23;20473;-83
2023/08/13 03:06:05;;;;;;;4.33;3.50;;;20.60;99.90;;;;;;6129078;23;20454;-84
2023/08/13 03:08:50;;;;;;;3.30;3.00;;;21.90;99.90;;;;;;6128725;23;20407;-83
2023/08/13 03:11:32;;;;;;;3.93;3.60;;;19.90;99.90;;;;;;6129688;23;20430;-83
2023/08/13 03:14:12;;;;;;;5.33;3.67;;;21.50;99.90;;;;;;6151888;23;21260;-82
2023/08/13 03:16:55;;;;;;;6.43;3.30;;;21.70;99.90;;;;;;6129865;23;20424;-83
2023/08/13 03:19:29;;;;;;;5.73;3.17;;;20.30;99.90;;;;;;6125913;23;21038;-84
2023/08/13 03:22:10;;;;;;;6.37;4.33;;;20.70;99.90;;;;;;6131650;23;20485;-82
2023/08/13 03:24:47;;;;;;;4.63;3.60;;;20.80;99.90;;;;;;6127568;23;20450;-84
2023/08/13 03:27:24;;;;;;;3.47;3.17;;;21.50;99.90;;;;;;6131995;23;20430;-84
2023/08/13 03:29:53;;;;;;;3.57;3.27;;;21.40;99.90;;;;;;6128980;23;20406;-84
2023/08/13 03:32:28;;;;;;;3.50;3.20;;;20.10;99.90;;;;;;6155305;23;20387;-84
2023/08/13 03:35:02;;;;;;;3.47;3.00;;;19.40;99.90;;;;;;6134100;23;20470;-84
2023/08/13 03:37:42;;;;;;;5.70;4.00;;;21.10;99.90;;;;;;6130880;23;20414;-83
2023/08/13 03:40:12;;;;;;;5.60;2.93;;;20.70;99.90;;;;;;6122827;23;20509;-82
2023/08/13 03:42:58;;;;;;;3.77;2.80;;;20.40;99.90;;;;;;6124482;23;20711;-81
2023/08/13 03:45:31;;;;;;;4.00;3.60;;;20.60;99.90;;;;;;6151739;23;20454;-84
2023/08/13 03:48:21;;;;;;;3.53;3.17;;;20.80;99.90;;;;;;6125677;23;20414;-83
2023/08/13 03:51:08;;;;;;;5.13;3.13;;;20.70;99.90;;;;;;6124744;23;20540;-82
2023/08/13 03:53:46;;;;;;;3.87;3.47;;;20.90;99.90;;;;;;6125041;23;20415;-82
2023/08/13 03:56:24;;;;;;;3.83;3.43;;;20.50;99.90;;;;;;6127715;23;20513;-83
2023/08/13 03:58:57;;;;;;;4.07;3.53;;;20.90;99.90;;;;;;6124129;23;21279;-83
2023/08/13 04:02:07;;;;;;;;;;;;;;;;;;;;;
2023/08/13 04:04:55;;;;;;;5.97;4.00;;;20.40;99.90;;;;;;6148426;23;20468;-84
2023/08/13 04:07:46;;;;;;;4.57;3.30;;;21.20;99.90;;;;;;6128127;23;20395;-83
2023/08/13 04:10:22;;;;;;;3.63;3.30;;;21.00;99.90;;;;;;6136738;23;20481;-83
2023/08/13 04:12:59;;;;;;;3.93;3.50;;;21.70;99.90;;;;;;6137925;23;20773;-82
2023/08/13 04:15:34;;;;;;;5.40;3.50;;;20.60;99.90;;;;;;6164976;23;20537;-84
2023/08/13 04:18:20;;;;;;;5.13;3.90;;;21.60;99.90;;;;;;6164823;23;20422;-84
2023/08/13 04:21:07;;;;;;;5.30;3.77;;;20.20;99.90;;;;;;6134296;23;20411;-83
2023/08/13 04:23:56;;;;;;;4.33;3.93;;;21.40;99.90;;;;;;6133070;23;20443;-82
2023/08/13 04:26:28;;;;;;;4.33;3.93;;;20.60;99.90;;;;;;6130044;23;20458;-83
2023/08/13 04:29:25;;;;;;;4.80;4.40;;;20.10;99.90;;;;;;6129204;23;20430;-81
2023/08/13 04:32:03;;;;;;;4.83;3.83;;;20.60;99.90;;;;;;6134158;23;20411;-84
2023/08/13 04:34:38;;;;;;;4.37;3.60;;;21.40;99.90;;;;;;6127367;23;20451;-83
2023/08/13 04:37:08;;;;;;;4.90;3.87;;;19.40;99.90;;;;;;6154622;23;20438;-83
2023/08/13 04:39:44;;;;;;;5.00;4.50;;;19.80;99.90;;;;;;6127278;23;20415;-84
2023/08/13 04:42:28;;;;;;;9.20;3.87;;;20.20;99.90;;;;;;6127399;23;20983;-83
2023/08/13 04:45:07;;;;;;;6.07;4.37;;;21.20;99.90;;;;;;6127978;23;20446;-84
2023/08/13 04:47:57;;;;;;;;;;;;;;;;;;;;;
2023/08/13 04:50:48;;;;;;;3.80;3.40;;;20.20;99.90;;;;;;6150701;23;20458;-83
2023/08/13 04:53:27;;;;;;;3.93;3.40;;;19.90;99.90;;;;;;6124420;23;20473;-81
2023/08/13 04:56:00;;;;;;;6.63;4.00;;;20.50;99.90;;;;;;6124869;23;20803;-83
2023/08/13 04:59:02;;;;;;;4.00;3.70;;;20.70;99.90;;;;;;6127653;23;20423;-85
2023/08/13 05:01:38;;;;;;;3.57;3.27;;;19.80;99.90;;;;;;6125044;23;20666;-82
2023/08/13 05:04:17;;;;;;;6.00;3.50;;;20.30;99.90;;;;;;6127388;23;20433;-84
2023/08/13 05:07:10;;;;;;;3.50;3.20;;;20.40;99.90;;;;;;6124920;23;20395;-83
2023/08/13 05:09:46;;;;;;;4.80;3.93;;;19.00;99.90;;;;;;6128691;23;20489;-84
2023/08/13 05:12:41;;;;;;;3.60;3.30;;;21.70;99.90;;;;;;6141535;23;20406;-83
2023/08/13 05:15:19;;;;;;;3.93;2.93;;;19.50;99.90;;;;;;6130372;23;20534;-82
2023/08/13 05:17:53;;;;;;;4.93;3.90;;;20.50;99.90;;;;;;6133387;23;20446;-85
2023/08/13 05:20:32;;;;;;;4.67;3.77;;;20.50;99.90;;;;;;6127460;23;20429;-83
2023/08/13 05:23:22;;;;;;;6.63;3.90;;;20.80;99.90;;;;;;6128712;23;20422;-84
2023/08/13 05:25:57;;;;;;;4.50;4.03;;;20.30;99.90;;;;;;6127410;23;20964;-85
2023/08/13 05:28:34;;;;;;;4.50;4.10;;;20.30;99.90;;;;;;6131063;23;20411;-86
2023/08/13 05:31:24;;;;;;;5.33;3.80;;;20.00;99.90;;;;;;6131016;23;20920;-85
2023/08/13 05:34:12;;;;;;;4.77;4.20;;;20.00;99.90;;;;;;6137043;23;20411;-84
2023/08/13 05:36:53;;;;;;;4.47;3.87;;;20.80;99.90;;;;;;6131403;23;20418;-84
2023/08/13 05:39:24;;;;;;;3.90;3.60;;;20.80;99.90;;;;;;6157102;23;20399;-83
2023/08/13 05:42:13;;;;;;;4.30;3.83;;;20.30;99.90;;;;;;6135431;23;20437;-83
2023/08/13 05:45:04;;;;;;;7.00;4.50;;;20.20;99.90;;;;;;6141359;23;20438;-85
2023/08/13 05:47:41;;;;;;;4.60;4.20;;;20.50;99.90;;;;;;6168422;23;20407;-80
2023/08/13 05:50:29;;;;;;;6.80;3.50;;;20.40;99.90;;;;;;6146161;23;20494;-83
2023/08/13 05:53:10;;;;;;;5.37;4.13;;;20.40;99.90;;;;;;6144943;23;20403;-83
2023/08/13 05:55:53;;;;;;;3.60;2.87;;;20.30;99.90;;;;;;6141776;23;20486;-83
2023/08/13 05:58:55;;;;;;;5.13;3.77;;;20.30;99.90;;;;;;6146460;23;21073;-82
2023/08/13 06:02:07;;;;;;;5.80;3.50;;;20.30;99.90;;;;;;6167455;23;20422;-83
2023/08/13 06:04:42;;;;;;;4.83;4.33;;;21.00;99.90;;;;;;6142418;23;20434;-81
2023/08/13 06:07:25;;;;;;;4.00;3.70;;;20.50;99.90;;;;;;6140061;23;20437;-82
2023/08/13 06:10:34;;;;;;;4.40;3.87;;;20.80;99.90;;;;;;6093888;23;20430;-83
2023/08/13 06:13:18;;;;;;;4.20;3.40;;;20.70;99.90;;;;;;6137591;23;20943;-82
2023/08/13 06:16:10;;;;;;;5.17;3.40;;;20.40;99.90;;;;;;6135453;23;20446;-83
2023/08/13 06:18:48;;;;;;;5.20;3.87;;;20.40;99.90;;;;;;6134678;23;20411;-85
2023/08/13 06:21:28;;;;;;;6.03;3.87;;;21.30;99.90;;;;;;6118894;23;20402;-83
2023/08/13 06:24:28;;;;;;;5.03;3.83;;;21.90;99.90;;;;;;6163924;23;20526;-83
2023/08/13 06:27:18;;;;;;;5.70;3.40;;;20.70;99.90;;;;;;6141074;23;21367;-83
2023/08/13 06:30:04;;;;;;;3.93;3.53;;;21.30;99.90;;;;;;6138122;23;20403;-82
2023/08/13 06:32:51;;;;;;;3.70;3.33;;;21.30;99.90;;;;;;6161284;23;20411;-83
2023/08/13 06:40:00;;;;;;;3.97;3.00;;;22.30;99.90;;;;;;6149722;23;20489;-83
2023/08/13 06:43:18;;;;;;;5.47;3.60;;;22.00;99.90;;;;;;6066152;23;21010;-82
2023/08/13 06:50:03;;;;;;;6.03;3.27;;;20.40;99.90;;;;;;6023525;23;20435;-85
2023/08/13 06:53:08;;;;;;;5.20;3.10;;;21.90;99.90;;;;;;6157740;23;20395;-82
2023/08/13 06:56:05;;;;;;;4.30;3.40;;;21.60;99.90;;;;;;6135152;23;20447;-84
2023/08/13 06:59:03;;;;;;;3.87;3.47;;;22.00;99.90;;;;;;6137347;23;20449;-83
2023/08/13 07:05:23;;;;;;;4.00;3.60;;;21.70;99.90;;;;;;6046483;23;20536;-82
2023/08/13 07:15:10;;;;;;;3.20;2.90;;;23.20;99.90;;;;;;6088832;23;20480;-83
2023/08/13 07:17:57;;;;;;;5.20;3.30;;;22.90;99.80;;;;;;6123204;23;20411;-84
2023/08/13 07:20:54;;;;;;;4.30;3.33;;;23.50;99.90;;;;;;6178547;23;20399;-85
2023/08/13 07:23:38;;;;;;;4.30;3.00;;;21.90;99.90;;;;;;6152671;23;20402;-85
2023/08/13 07:26:19;;;;;;;4.20;3.40;;;21.90;99.50;;;;;;6153221;23;20525;-85
2023/08/13 08:21:58;;;;;;;;;;;;;;;;;;;;;
2023/08/13 08:31:47;;;;;;;2.53;2.30;;;27.20;86.50;;;;;;6079520;23;20422;-84
2023/08/13 08:35:00;;;;;;;3.40;2.40;;;27.60;88.70;;;;;;6016483;23;21462;-84
2023/08/13 08:37:50;;;;;;;3.17;2.40;;;26.80;90.70;;;;;;6014767;23;20404;-83
2023/08/13 08:40:55;;;;;;;4.53;2.37;;;26.70;87.80;;;;;;6058882;23;20417;-85
2023/08/13 08:44:35;;;;;;;4.03;2.33;;;27.10;87.70;;;;;;5933977;24;20413;-85
2023/08/13 09:07:34;;;;;;;;;;;;;;;;;;;;;
2023/08/13 09:14:10;;;;;;;4.37;1.80;;;27.70;74.90;;;;;;5960637;24;20433;-82
2023/08/13 09:20:51;;;;;;;2.60;1.50;;;28.10;76.40;;;;;;6099631;23;20470;-83
2023/08/13 09:30:09;;;;;;;3.30;1.90;;;27.30;73.50;;;;;;6137315;23;20471;-83
2023/08/13 09:33:19;;;;;;;4.00;2.03;;;27.00;75.90;;;;;;6116439;23;20371;-84
2023/08/13 09:36:26;;;;;;;3.33;1.60;;;25.80;77.40;;;;;;6133838;23;20541;-84
2023/08/13 09:40:29;;;;;;;4.07;2.10;;;25.00;79.80;;;;;;6145714;23;20418;-83
2023/08/13 09:43:23;;;;;;;3.40;2.10;;;25.90;82.20;;;;;;5994709;23;20397;-82
2023/08/13 09:46:11;;;;;;;2.37;1.53;;;26.60;79.80;;;;;;6055483;23;20481;-80
2023/08/13 09:49:12;;;;;;;3.20;1.67;;;28.30;73.60;;;;;;6145672;23;20414;-86
2023/08/13 09:56:15;;;;;;;4.83;1.40;;;29.50;68.80;;;;;;6169712;23;20435;-84
2023/08/13 09:59:09;;;;;;;2.87;1.50;;;28.80;68.90;;;;;;6164719;23;20485;-84
2023/08/13 10:02:25;;;;;;;3.40;1.60;;;28.50;72.30;;;;;;6142166;23;20394;-84
2023/08/13 10:05:18;;;;;;;3.33;1.77;;;29.30;68.60;;;;;;6139380;23;20532;-83
2023/08/13 10:08:22;;;;;;;3.23;1.43;;;29.40;67.10;;;;;;6167062;23;20489;-85
2023/08/13 10:12:10;;;;;;;4.10;1.37;;;29.00;68.30;;;;;;6149519;23;21016;-85
2023/08/13 10:18:33;;;;;;;3.03;1.80;;;29.70;65.70;;;;;;6098337;23;20440;-86
2023/08/13 10:22:01;;;;;;;3.03;1.57;;;29.40;68.10;;;;;;6086352;23;20412;-85
2023/08/13 10:37:21;;;;;;;3.77;1.87;;;27.10;75.30;;;;;;6173875;23;20530;-83
2023/08/13 10:41:02;;;;;;;;;;;;;;;;;;;;;
2023/08/13 10:48:37;;;;;;;3.50;2.00;;;26.50;83.50;;;;;;5974464;24;20437;-83
2023/08/13 11:08:04;;;;;;;2.63;2.07;;;25.80;81.30;;;;;;6126492;23;20466;-84
2023/08/13 11:20:40;;;;;;;6.90;2.13;;;25.60;81.90;;;;;;6123552;23;20563;-84
2023/08/13 11:24:01;;;;;;;3.17;2.37;;;26.20;83.50;;;;;;6047549;23;20428;-84
2023/08/13 11:30:54;;;;;;;5.77;3.13;;;26.00;82.90;;;;;;6001780;23;21014;-82
2023/08/13 11:38:08;;;;;;;;;;;;;;;;;;;;;
2023/08/13 11:45:53;;;;;;;;;;;;;;;;;;;;;
2023/08/13 11:55:57;;;;;;;5.37;2.20;;;26.20;85.40;;;;;;6127441;23;20435;-83
2023/08/13 12:19:08;;;;;;;3.00;2.30;;;26.10;85.90;;;;;;6154523;23;20509;-83
2023/08/13 12:22:20;;;;;;;;;;;;;;;;;;;;;
2023/08/13 12:26:05;;;;;;;;;;;;;;;;;;;;;
2023/08/13 12:29:28;;;;;;;2.70;1.90;;;25.40;86.20;;;;;;6158891;23;20430;-84
2023/08/13 12:32:51;;;;;;;;;;;;;;;;;;;;;
2023/08/13 12:39:42;;;;;;;3.47;2.30;;;26.30;86.30;;;;;;6134651;23;20454;-85
2023/08/13 12:43:08;;;;;;;2.33;2.13;;;26.70;83.20;;;;;;6021223;23;20422;-83
2023/08/13 12:46:38;;;;;;;2.60;2.40;;;26.90;84.00;;;;;;5979228;23;20484;-84
2023/08/13 13:00:36;;;;;;;1.23;1.07;;;27.10;63.20;;;;;;6133144;23;20462;-84
2023/08/13 13:04:01;;;;;;;2.23;1.27;;;27.20;65.70;;;;;;6112618;23;20496;-84
2023/08/13 13:10:49;;;;;;;1.70;1.43;;;27.40;63.90;;;;;;6096264;23;20945;-86
2023/08/13 13:14:08;;;;;;;2.30;2.10;;;27.80;66.80;;;;;;6062511;23;20487;-85
2023/08/13 13:17:21;;;;;;;2.03;1.37;;;27.30;66.80;;;;;;6004705;23;20474;-86
2023/08/13 13:21:18;;;;;;;1.93;1.40;;;27.60;67.00;;;;;;6019515;23;20443;-83
2023/08/13 13:30:33;;;;;;;;;;;;;;;;;;;;;
2023/08/13 13:33:27;;;;;;;;;;;;;;;;;;;;;
2023/08/13 13:36:15;;;;;;;1.97;1.50;;;28.20;68.90;;;;;;6164710;23;20502;-84
2023/08/13 13:39:26;;;;;;;2.90;2.03;;;26.70;68.20;;;;;;6133248;23;20415;-83
2023/08/13 13:42:37;;;;;;;2.87;1.83;;;27.40;68.20;;;;;;6133422;23;20406;-84
2023/08/13 13:45:49;;;;;;;3.23;1.40;;;26.50;66.90;;;;;;6152509;23;20922;-82
2023/08/13 13:52:12;;;;;;;3.37;3.07;;;27.50;67.70;;;;;;6171322;23;21020;-85
2023/08/13 13:58:10;;;;;;;1.90;1.70;;;27.30;64.70;;;;;;6151381;23;20450;-85
2023/08/13 14:01:18;;;;;;;2.70;1.60;;;27.40;66.00;;;;;;6128198;23;20426;-84
2023/08/13 14:04:13;;;;;;;2.00;1.37;;;27.50;66.20;;;;;;6122724;23;20493;-85
2023/08/13 14:07:00;;;;;;;1.60;1.10;;;27.00;63.20;;;;;;6145554;23;20454;-82
2023/08/13 14:10:03;;;;;;;;;;;;;;;;;;;;;
2023/08/13 14:12:59;;;;;;;1.90;1.40;;;27.80;61.80;;;;;;6136023;23;20454;-84
2023/08/13 14:16:23;;;;;;;2.10;1.43;;;27.80;61.80;;;;;;6065035;23;21212;-84
2023/08/13 14:19:50;;;;;;;3.50;1.50;;;28.00;60.10;;;;;;6077063;23;20408;-83
2023/08/13 14:22:57;;;;;;;1.67;1.50;;;27.40;61.00;;;;;;6097031;23;20395;-83
2023/08/13 14:26:04;;;;;;;3.37;2.83;;;27.50;59.70;;;;;;6100248;23;20440;-84
2023/08/13 14:29:21;;;;;;;1.97;1.27;;;26.00;59.50;;;;;;6102218;23;20411;-84
2023/08/13 14:32:17;;;;;;;1.20;1.10;;;27.50;59.60;;;;;;6135448;23;20945;-84
2023/08/13 14:35:23;;;;;;;2.33;1.50;;;28.00;62.10;;;;;;6129983;23;20438;-82
2023/08/13 14:38:36;;;;;;;1.40;1.30;;;28.50;61.00;;;;;;6093967;23;20434;-84
2023/08/13 14:41:30;;;;;;;2.20;1.80;;;28.10;61.90;;;;;;6129596;23;20411;-83
2023/08/13 14:50:05;;;;;;;4.00;1.87;;;28.00;63.40;;;;;;6061445;23;20574;-84
2023/08/13 14:52:58;;;;;;;1.83;1.30;;;28.30;63.10;;;;;;6041355;23;20414;-83
2023/08/13 14:55:59;;;;;;;;;;;;;;;;;;;;;
2023/08/13 14:59:04;;;;;;;;;;;;;;;;;;;;;
2023/08/13 15:02:16;;;;;;;3.53;1.50;;;28.90;59.10;;;;;;6154326;23;20990;-85
2023/08/13 15:09:09;;;;;;;2.40;1.60;;;27.90;59.70;;;;;;6074340;23;20859;-85
2023/08/13 15:12:19;;;;;;;3.67;1.60;;;28.30;60.90;;;;;;6050920;23;20801;-84
2023/08/13 15:23:03;;;;;;;2.00;1.40;;;28.00;60.20;;;;;;6026321;23;20401;-82
2023/08/13 15:33:52;;;;;;;2.40;1.30;;;28.00;58.70;;;;;;6015013;23;20437;-84
2023/08/13 15:39:54;;;;;;;2.13;1.23;;;27.30;59.40;;;;;;6150350;23;20552;-83
2023/08/13 15:43:34;;;;;;;3.10;1.83;;;28.00;60.10;;;;;;6074906;23;20950;-82
2023/08/13 15:46:50;;;;;;;2.33;1.40;;;28.00;59.10;;;;;;6015468;23;20451;-83
2023/08/13 15:50:20;;;;;;;2.30;1.37;;;28.20;58.80;;;;;;5876188;24;20942;-83
2023/08/13 16:03:49;;;;;;;1.90;1.17;;;27.70;60.30;;;;;;6143722;23;20403;-83
2023/08/13 16:10:39;;;;;;;;;;;;;;;;;;;;;
2023/08/13 16:17:37;;;;;;;3.10;1.90;;;27.70;59.40;;;;;;6153907;23;20969;-83
2023/08/13 16:24:45;;;;;;;2.30;1.50;;;28.00;61.10;;;;;;6054626;23;20414;-82
2023/08/13 16:28:20;;;;;;;3.20;1.60;;;28.00;60.40;;;;;;6014205;23;20435;-86
2023/08/13 16:31:46;;;;;;;4.77;2.47;;;27.40;60.30;;;;;;6022249;23;20415;-86
2023/08/13 16:34:51;;;;;;;1.50;1.40;;;28.10;61.00;;;;;;6002933;23;20790;-85
2023/08/13 16:37:44;;;;;;;;;;;;;;;;;;;;;
2023/08/13 16:41:27;;;;;;;1.97;1.60;;;27.40;60.80;;;;;;6042579;23;20410;-82
2023/08/13 16:44:29;;;;;;;;;;;;;;;;;;;;;
2023/08/13 16:47:31;;;;;;;2.23;1.60;;;27.60;61.70;;;;;;6026903;23;20481;-83
2023/08/13 16:50:52;;;;;;;;;;;;;;;;;;;;;
2023/08/13 16:54:11;;;;;;;6.17;2.33;;;27.60;59.70;;;;;;5929681;24;20445;-83
2023/08/13 17:00:51;;;;;;;5.50;1.80;;;27.50;60.00;;;;;;5902110;24;20568;-82
2023/08/13 17:10:27;;;;;;;2.43;1.73;;;27.20;60.20;;;;;;6151247;23;20450;-84
2023/08/13 17:30:06;;;;;;;;;;;;;;;;;;;;;
2023/08/13 17:37:15;;;;;;;2.60;1.30;;;27.20;61.20;;;;;;6171223;23;20407;-85
2023/08/13 17:41:11;;;;;;;2.50;1.97;;;26.90;64.60;;;;;;6107292;23;20812;-85
2023/08/13 17:47:50;;;;;;;2.10;1.90;;;26.40;62.50;;;;;;6162169;23;20545;-82
2023/08/13 17:55:17;;;;;;;2.20;1.87;;;27.50;63.50;;;;;;6161860;23;20395;-85
2023/08/13 18:02:02;;;;;;;4.83;1.67;;;26.30;62.90;;;;;;5936763;23;20919;-86
2023/08/13 18:07:52;;;;;;;3.37;2.20;;;26.30;63.80;;;;;;6162190;23;20461;-84
2023/08/13 18:11:31;;;;;;;;;;;;;;;;;;;;;
2023/08/13 18:18:09;;;;;;;2.50;2.07;;;26.20;64.60;;;;;;6127647;23;20557;-83
2023/08/13 18:21:59;;;;;;;3.00;2.00;;;26.20;65.70;;;;;;5985536;23;20427;-84
2023/08/13 18:31:00;;;;;;;2.10;1.87;;;25.90;65.40;;;;;;6139159;23;20582;-83
2023/08/13 18:34:00;;;;;;;1.90;1.57;;;26.10;65.80;;;;;;6153439;23;20498;-84
2023/08/13 18:49:10;;;;;;;2.90;2.00;;;25.70;65.80;;;;;;6153571;23;20513;-85
2023/08/13 18:52:59;;;;;;;;;;;;;;;;;;;;;
2023/08/13 19:00:43;;;;;;;;;;;;;;;;;;;;;
2023/08/13 19:11:00;;;;;;;;;;;;;;;;;;;;;
2023/08/13 19:16:55;;;;;;;3.93;2.13;;;25.50;65.00;;;;;;6129449;23;20496;-84
2023/08/13 19:20:21;;;;;;;2.30;2.00;;;25.60;65.20;;;;;;6046779;23;20423;-83
2023/08/13 19:23:08;;;;;;;3.30;2.00;;;25.50;65.30;;;;;;5996389;23;20409;-84
2023/08/13 19:28:33;;;;;;;3.03;1.90;;;25.20;64.90;;;;;;6155828;23;20450;-84
2023/08/13 19:35:47;;;;;;;4.43;2.10;;;25.30;65.80;;;;;;6157423;23;20402;-84
2023/08/13 19:39:23;;;;;;;3.80;2.57;;;25.10;66.20;;;;;;6034704;23;20926;-82
2023/08/13 19:46:16;;;;;;;;;;;;;;;;;;;;;
2023/08/13 20:22:12;;;;;;;5.50;3.60;;;25.00;70.60;;;;;;6166295;23;20499;-84
2023/08/13 20:33:26;;;;;;;4.90;4.00;;;24.20;70.40;;;;;;6043395;23;20467;-82
2023/08/13 20:41:03;;;;;;;;;;;;;;;;;;;;;
2023/08/13 20:44:17;;;;;;;3.77;3.40;;;24.70;71.80;;;;;;6161301;23;20523;-84
2023/08/13 21:03:14;;;;;;;;;;;;;;;;;;;;;
2023/08/13 21:10:13;;;;;;;6.40;3.90;;;24.00;75.00;;;;;;6166887;23;20381;-82
2023/08/13 21:14:05;;;;;;;;;;;;;;;;;;;;;
2023/08/13 21:23:02;;;;;;;3.73;2.53;;;24.00;75.40;;;;;;6153927;23;20489;-82
2023/08/13 21:33:50;;;;;;;4.63;2.63;;;24.00;76.40;;;;;;6159278;23;20569;-84
2023/08/13 21:37:39;;;;;;;6.50;3.07;;;24.50;79.70;;;;;;6154436;23;20804;-82
2023/08/13 21:40:36;;;;;;;4.73;2.47;;;24.80;76.10;;;;;;6132380;23;20426;-85
2023/08/13 22:03:14;;;;;;;3.40;2.60;;;23.50;78.50;;;;;;6137961;23;20468;-81
2023/08/13 22:06:45;;;;;;;3.57;2.40;;;23.20;80.10;;;;;;6112055;23;20477;-82
2023/08/13 22:10:06;;;;;;;3.50;2.80;;;23.50;80.90;;;;;;6000990;23;20435;-83
2023/08/13 22:13:03;;;;;;;4.03;2.50;;;23.50;79.80;;;;;;6102627;23;20416;-83
2023/08/13 22:16:40;;;;;;;2.60;1.93;;;23.30;82.30;;;;;;6108883;23;20470;-84
2023/08/13 22:20:02;;;;;;;3.73;2.17;;;24.30;80.30;;;;;;6020971;23;20426;-84
2023/08/13 22:23:25;;;;;;;2.90;2.03;;;24.20;79.00;;;;;;6086175;23;20478;-84
2023/08/13 22:27:09;;;;;;;;;;;;;;;;;;;;;
2023/08/13 22:34:30;;;;;;;4.23;2.30;;;23.60;83.10;;;;;;6078774;23;20507;-83
2023/08/13 22:38:15;;;;;;;;;;;;;;;;;;;;;
2023/08/13 22:48:03;;;;;;;;;;;;;;;;;;;;;
2023/08/13 22:51:15;;;;;;;;;;;;;;;;;;;;;
2023/08/13 22:57:43;;;;;;;3.73;2.60;;;22.90;85.70;;;;;;6125478;23;20437;-81
2023/08/13 23:00:56;;;;;;;4.83;2.00;;;22.60;86.20;;;;;;6037534;23;20454;-82
2023/08/13 23:07:28;;;;;;;2.10;1.53;;;21.90;86.90;;;;;;6121076;23;20455;-84
2023/08/13 23:10:33;;;;;;;3.10;1.83;;;22.80;90.50;;;;;;6102053;23;20423;-84
2023/08/13 23:13:59;;;;;;;3.40;2.30;;;22.70;89.50;;;;;;6093008;23;20416;-84
2023/08/13 23:17:12;;;;;;;3.47;2.13;;;22.80;89.70;;;;;;6138168;23;20457;-81
2023/08/13 23:20:51;;;;;;;6.17;2.40;;;22.50;90.30;;;;;;6150937;23;20413;-83
2023/08/13 23:24:17;;;;;;;;;;;;;;;;;;;;;
2023/08/13 23:27:07;;;;;;;3.50;1.80;;;22.40;90.10;;;;;;6122045;23;21132;-85
2023/08/13 23:33:19;;;;;;;4.60;2.00;;;22.60;90.60;;;;;;5988862;23;20450;-83
2023/08/13 23:36:12;;;;;;;2.47;2.00;;;22.60;90.40;;;;;;6009323;23;20494;-85
2023/08/13 23:39:02;;;;;;;3.00;2.20;;;23.80;91.10;;;;;;6006248;23;20571;-83
2023/08/13 23:42:14;;;;;;;3.07;2.33;;;22.40;90.80;;;;;;6000452;23;20507;-82
2023/08/13 23:45:43;;;;;;;;;;;;;;;;;;;;;
2023/08/13 23:48:38;;;;;;;3.47;2.03;;;22.30;91.20;;;;;;6152610;23;20943;-86
2023/08/13 23:51:59;;;;;;;3.00;2.13;;;21.40;90.90;;;;;;6068170;23;20442;-84
2023/08/13 23:54:53;;;;;;;3.10;2.70;;;21.90;91.60;;;;;;6126522;23;21237;-85
2023/08/13 23:58:15;;;;;;;3.00;2.47;;;21.90;92.40;;;;;;6013740;23;20412;-83
